createdAt,value
2019-03-29T00:01:09.404Z,86.87
2019-03-29T00:03:37.919Z,86.89
2019-03-29T00:06:06.388Z,86.92
2019-03-29T00:08:35.971Z,86.92
2019-03-29T00:11:04.544Z,87.02
2019-03-29T00:13:32.999Z,87.12
2019-03-29T00:16:01.470Z,87.09
2019-03-29T00:18:29.969Z,87.07
2019-03-29T00:20:58.430Z,87.04
2019-03-29T00:23:26.893Z,87.05
2019-03-29T00:25:55.415Z,87.11
2019-03-29T00:28:23.889Z,86.91
2019-03-29T00:30:52.328Z,86.76
2019-03-29T00:33:20.858Z,86.61
2019-03-29T00:35:49.600Z,86.61
2019-03-29T00:38:18.131Z,86.63
2019-03-29T00:40:46.637Z,86.77
2019-03-29T00:43:15.105Z,86.97
2019-03-29T00:45:43.551Z,87.15
2019-03-29T00:48:12.038Z,87.43
2019-03-29T00:50:40.494Z,87.77
2019-03-29T00:53:09.182Z,88.09
2019-03-29T00:55:37.913Z,88.28
2019-03-29T00:58:06.367Z,88.37
2019-03-29T01:00:34.839Z,88.40
2019-03-29T01:03:03.471Z,88.39
2019-03-29T01:05:31.929Z,88.49
2019-03-29T01:08:07.651Z,88.48
2019-03-29T01:10:30.631Z,88.51
2019-03-29T01:12:59.254Z,88.63
2019-03-29T01:15:27.718Z,88.69
2019-03-29T01:17:56.184Z,88.80
2019-03-29T01:20:24.639Z,88.89
2019-03-29T01:22:53.092Z,88.81
2019-03-29T01:25:21.585Z,88.92
2019-03-29T01:27:50.038Z,89.12
2019-03-29T01:30:18.571Z,89.50
2019-03-29T01:32:47.065Z,90.19
2019-03-29T01:35:15.529Z,90.70
2019-03-29T01:37:44.288Z,91.09
2019-03-29T01:40:13.018Z,91.34
2019-03-29T01:42:41.493Z,91.57
2019-03-29T01:45:10.822Z,91.62
2019-03-29T01:47:39.329Z,91.76
2019-03-29T01:50:08.156Z,91.71
2019-03-29T01:52:37.086Z,91.68
2019-03-29T01:55:06.819Z,91.70
2019-03-29T01:57:35.364Z,91.80
2019-03-29T02:00:03.958Z,91.88
2019-03-29T02:02:32.445Z,91.93
2019-03-29T02:05:01.191Z,92.09
2019-03-29T02:07:30.074Z,92.12
2019-03-29T02:09:58.597Z,92.12
2019-03-29T02:12:27.065Z,92.25
2019-03-29T02:14:55.601Z,92.29
2019-03-29T02:17:24.107Z,92.35
2019-03-29T02:19:52.564Z,92.39
2019-03-29T02:22:21.028Z,92.43
2019-03-29T02:24:50.045Z,92.42
2019-03-29T02:27:18.675Z,92.34
2019-03-29T02:29:47.138Z,92.39
2019-03-29T02:32:15.622Z,92.30
2019-03-29T02:34:44.241Z,92.25
2019-03-29T02:37:12.719Z,92.18
2019-03-29T02:39:41.383Z,92.14
2019-03-29T02:42:09.856Z,92.04
2019-03-29T02:44:38.319Z,92.07
2019-03-29T02:49:40.730Z,91.77
2019-03-29T02:52:09.188Z,91.87
2019-03-29T02:54:37.690Z,91.91
2019-03-29T02:57:06.166Z,91.75
2019-03-29T02:59:34.625Z,91.69
2019-03-29T03:02:03.229Z,91.60
2019-03-29T03:04:31.708Z,91.61
2019-03-29T03:07:00.180Z,91.72
2019-03-29T03:09:28.674Z,91.68
2019-03-29T03:11:57.152Z,91.70
2019-03-29T03:14:25.658Z,91.40
2019-03-29T03:16:54.140Z,91.34
2019-03-29T03:19:22.603Z,91.46
2019-03-29T03:21:51.088Z,91.43
2019-03-29T03:24:19.606Z,91.25
2019-03-29T03:26:48.085Z,91.11
2019-03-29T03:29:16.643Z,90.98
2019-03-29T03:31:45.197Z,91.02
2019-03-29T03:34:13.709Z,90.92
2019-03-29T03:36:42.261Z,90.94
2019-03-29T03:39:10.762Z,91.06
2019-03-29T03:41:39.559Z,91.08
2019-03-29T03:44:08.019Z,91.13
2019-03-29T03:46:36.528Z,91.15
2019-03-29T03:49:05.052Z,91.14
2019-03-29T03:51:33.661Z,91.04
2019-03-29T03:54:02.185Z,90.88
2019-03-29T03:56:31.716Z,90.83
2019-03-29T03:59:00.246Z,90.85
2019-03-29T04:01:28.746Z,90.95
2019-03-29T04:03:57.282Z,90.97
2019-03-29T04:06:25.769Z,91.02
2019-03-29T04:08:54.293Z,90.94
2019-03-29T04:11:22.742Z,90.90
2019-03-29T04:13:51.209Z,90.92
2019-03-29T04:16:19.707Z,90.94
2019-03-29T04:18:48.184Z,90.92
2019-03-29T04:21:16.654Z,90.89
2019-03-29T04:23:45.235Z,90.79
2019-03-29T04:26:13.705Z,90.73
2019-03-29T04:28:42.177Z,90.68
2019-03-29T04:31:10.680Z,90.58
2019-03-29T04:33:39.165Z,90.55
2019-03-29T04:36:07.676Z,90.57
2019-03-29T04:38:36.172Z,90.53
2019-03-29T04:41:04.810Z,90.47
2019-03-29T04:43:34.322Z,90.46
2019-03-29T04:46:02.809Z,90.43
2019-03-29T04:48:31.274Z,90.42
2019-03-29T04:50:59.738Z,90.27
2019-03-29T04:53:28.294Z,90.33
2019-03-29T04:55:56.765Z,90.35
2019-03-29T04:58:26.875Z,90.30
2019-03-29T05:00:55.399Z,90.28
2019-03-29T05:03:23.848Z,90.24
2019-03-29T05:05:52.330Z,90.28
2019-03-29T05:08:20.840Z,90.28
2019-03-29T05:10:49.290Z,90.27
2019-03-29T05:13:17.759Z,90.20
2019-03-29T05:15:46.251Z,90.11
2019-03-29T05:18:14.715Z,90.01
2019-03-29T05:20:43.178Z,89.88
2019-03-29T05:23:11.662Z,89.83
2019-03-29T05:25:40.140Z,89.84
2019-03-29T05:28:08.613Z,89.94
2019-03-29T05:30:37.114Z,89.94
2019-03-29T05:33:05.606Z,89.95
2019-03-29T05:35:34.039Z,89.99
2019-03-29T05:38:02.540Z,89.97
2019-03-29T05:40:35.284Z,89.93
2019-03-29T05:43:01.174Z,89.84
2019-03-29T05:45:29.729Z,89.89
2019-03-29T05:47:58.202Z,89.96
2019-03-29T05:50:26.679Z,90.03
2019-03-29T05:52:55.263Z,89.97
2019-03-29T05:55:32.570Z,89.95
2019-03-29T05:57:53.950Z,89.86
2019-03-29T06:00:22.529Z,89.87
2019-03-29T06:02:50.992Z,89.81
2019-03-29T06:05:19.462Z,89.76
2019-03-29T06:07:47.977Z,89.62
2019-03-29T06:10:16.433Z,89.53
2019-03-29T06:12:44.908Z,89.36
2019-03-29T06:15:13.475Z,89.44
2019-03-29T06:17:48.581Z,89.44
2019-03-29T06:20:12.485Z,89.50
2019-03-29T06:22:40.989Z,89.43
2019-03-29T06:25:09.556Z,89.35
2019-03-29T06:27:38.014Z,89.27
2019-03-29T06:30:08.052Z,89.30
2019-03-29T06:32:36.520Z,89.40
2019-03-29T06:35:07.426Z,89.38
2019-03-29T06:37:36.857Z,89.31
2019-03-29T06:40:08.493Z,89.35
2019-03-29T06:42:36.984Z,89.25
2019-03-29T06:45:06.772Z,89.16
2019-03-29T06:47:35.434Z,89.13
2019-03-29T06:50:05.741Z,89.17
2019-03-29T06:52:34.232Z,89.13
2019-03-29T06:55:02.699Z,89.07
2019-03-29T06:57:31.163Z,88.97
2019-03-29T06:59:59.699Z,88.76
2019-03-29T07:02:28.153Z,88.63
2019-03-29T07:04:56.643Z,88.45
2019-03-29T07:07:25.171Z,88.28
2019-03-29T07:09:53.633Z,88.13
2019-03-29T07:12:22.107Z,87.91
2019-03-29T07:14:50.590Z,87.98
2019-03-29T07:17:19.052Z,87.82
2019-03-29T07:19:47.672Z,87.71
2019-03-29T07:22:16.193Z,87.85
2019-03-29T07:24:44.651Z,87.80
2019-03-29T07:27:13.120Z,87.66
2019-03-29T07:29:41.618Z,87.48
2019-03-29T07:32:10.091Z,87.26
2019-03-29T07:34:38.556Z,87.20
2019-03-29T07:37:07.083Z,87.16
2019-03-29T07:39:35.539Z,87.14
2019-03-29T07:42:04.021Z,87.08
2019-03-29T07:44:32.591Z,86.83
2019-03-29T07:47:01.069Z,86.80
2019-03-29T07:49:30.547Z,86.61
2019-03-29T07:51:59.040Z,86.48
2019-03-29T07:54:27.504Z,86.27
2019-03-29T07:56:55.968Z,86.06
2019-03-29T07:59:24.472Z,85.82
2019-03-29T08:01:53.461Z,85.78
2019-03-29T08:04:23.834Z,85.60
2019-03-29T08:06:52.150Z,85.35
2019-03-29T08:09:22.592Z,85.33
2019-03-29T08:11:50.809Z,85.22
2019-03-29T08:14:19.333Z,84.96
2019-03-29T08:16:47.792Z,84.66
2019-03-29T08:19:16.257Z,84.41
2019-03-29T08:21:44.780Z,84.36
2019-03-29T08:24:13.261Z,84.32
2019-03-29T08:26:41.736Z,84.33
2019-03-29T08:29:10.227Z,84.09
2019-03-29T08:31:38.687Z,83.85
2019-03-29T08:34:07.170Z,83.55
2019-03-29T08:36:35.676Z,83.16
2019-03-29T08:39:06.632Z,82.86
2019-03-29T08:41:36.459Z,82.56
2019-03-29T08:44:04.966Z,82.24
2019-03-29T08:46:33.433Z,81.99
2019-03-29T08:49:01.919Z,81.68
2019-03-29T08:51:30.544Z,81.28
2019-03-29T08:53:59.012Z,80.68
2019-03-29T08:56:27.484Z,80.17
2019-03-29T08:58:56.003Z,79.58
2019-03-29T09:01:24.453Z,79.37
2019-03-29T09:04:04.700Z,79.06
2019-03-29T09:06:23.162Z,78.74
2019-03-29T09:08:51.706Z,78.44
2019-03-29T09:11:20.173Z,78.15
2019-03-29T09:13:48.669Z,77.93
2019-03-29T09:16:17.136Z,77.73
2019-03-29T09:18:45.602Z,77.18
2019-03-29T09:21:14.124Z,76.78
2019-03-29T09:23:42.585Z,75.56
2019-03-29T09:26:11.120Z,74.58
2019-03-29T09:28:39.921Z,73.86
2019-03-29T09:31:08.379Z,73.67
2019-03-29T09:33:36.846Z,73.38
2019-03-29T09:36:05.494Z,72.79
2019-03-29T09:38:33.994Z,72.07
2019-03-29T09:41:02.483Z,71.73
2019-03-29T09:43:32.746Z,71.24
2019-03-29T09:46:03.337Z,70.85
2019-03-29T09:48:34.427Z,70.70
2019-03-29T09:51:01.644Z,70.42
2019-03-29T09:53:30.385Z,69.66
2019-03-29T09:55:58.846Z,69.64
2019-03-29T09:58:27.348Z,69.37
2019-03-29T10:00:55.808Z,69.37
2019-03-29T10:03:24.286Z,68.94
2019-03-29T10:05:52.777Z,68.86
2019-03-29T10:08:21.246Z,68.07
2019-03-29T10:10:49.700Z,67.37
2019-03-29T10:13:18.192Z,66.95
2019-03-29T10:15:46.662Z,67.04
2019-03-29T10:18:15.131Z,66.53
2019-03-29T10:20:43.628Z,65.71
2019-03-29T10:23:12.095Z,65.19
2019-03-29T10:25:40.546Z,64.85
2019-03-29T10:28:09.063Z,63.93
2019-03-29T10:30:42.076Z,63.96
2019-03-29T10:33:10.547Z,63.76
2019-03-29T10:35:51.007Z,63.16
2019-03-29T10:38:09.298Z,62.10
2019-03-29T10:40:37.757Z,61.53
2019-03-29T10:43:06.391Z,62.16
2019-03-29T10:45:39.786Z,61.92
2019-03-29T10:48:05.217Z,62.38
2019-03-29T10:50:33.785Z,62.65
2019-03-29T10:53:02.258Z,62.54
2019-03-29T10:55:30.962Z,62.41
2019-03-29T10:57:59.444Z,62.37
2019-03-29T11:00:36.345Z,62.32
2019-03-29T11:03:05.292Z,62.40
2019-03-29T11:05:33.754Z,63.19
2019-03-29T11:08:02.297Z,63.42
2019-03-29T11:10:38.621Z,63.39
2019-03-29T11:13:13.079Z,63.54
2019-03-29T11:15:37.335Z,63.55
2019-03-29T11:18:06.204Z,63.59
2019-03-29T11:20:34.662Z,63.69
2019-03-29T11:23:03.127Z,63.37
2019-03-29T11:25:31.698Z,63.64
2019-03-29T11:28:00.172Z,62.90
2019-03-29T11:30:41.444Z,63.04
2019-03-29T11:32:58.858Z,63.32
2019-03-29T11:35:27.386Z,63.02
2019-03-29T11:37:55.840Z,62.87
2019-03-29T11:40:24.374Z,63.03
2019-03-29T11:42:52.919Z,62.82
2019-03-29T11:45:21.401Z,62.63
2019-03-29T11:47:49.905Z,62.31
2019-03-29T11:50:18.427Z,61.95
2019-03-29T11:52:46.887Z,61.84
2019-03-29T11:55:15.441Z,61.52
2019-03-29T11:57:44.008Z,62.04
2019-03-29T12:00:13.063Z,62.08
2019-03-29T12:02:41.583Z,61.84
2019-03-29T12:05:10.063Z,62.30
2019-03-29T12:07:50.959Z,62.27
2019-03-29T12:10:19.458Z,61.47
2019-03-29T12:12:47.909Z,61.82
2019-03-29T12:15:16.444Z,61.94
2019-03-29T12:17:44.956Z,61.84
2019-03-29T12:20:13.485Z,61.88
2019-03-29T12:22:41.938Z,61.86
2019-03-29T12:25:10.517Z,61.83
2019-03-29T12:27:38.973Z,61.33
2019-03-29T12:30:11.005Z,61.28
2019-03-29T12:32:39.491Z,60.86
2019-03-29T12:35:09.996Z,61.02
2019-03-29T12:37:38.231Z,60.89
2019-03-29T12:40:08.337Z,61.33
2019-03-29T12:42:36.792Z,61.35
2019-03-29T12:45:08.168Z,61.31
2019-03-29T12:47:36.649Z,61.33
2019-03-29T12:50:08.498Z,61.48
2019-03-29T12:52:37.013Z,61.76
2019-03-29T12:55:06.084Z,61.96
2019-03-29T12:57:34.586Z,62.01
2019-03-29T13:00:05.083Z,61.91
2019-03-29T13:02:34.630Z,61.81
2019-03-29T13:05:03.573Z,61.43
2019-03-29T13:07:32.143Z,61.58
2019-03-29T13:10:00.643Z,61.65
2019-03-29T13:12:29.113Z,61.79
2019-03-29T13:14:57.554Z,61.83
2019-03-29T13:17:28.455Z,61.62
2019-03-29T13:19:56.240Z,62.08
2019-03-29T13:22:24.844Z,62.09
2019-03-29T13:24:53.480Z,61.38
2019-03-29T13:27:22.017Z,61.32
2019-03-29T13:29:50.479Z,61.05
2019-03-29T13:32:19.000Z,61.20
2019-03-29T13:34:51.093Z,60.88
2019-03-29T13:37:17.711Z,60.75
2019-03-29T13:39:46.235Z,60.69
2019-03-29T13:42:14.696Z,60.81
2019-03-29T13:44:43.156Z,60.77
2019-03-29T13:47:11.652Z,60.96
2019-03-29T13:49:40.123Z,60.71
2019-03-29T13:52:08.590Z,60.80
2019-03-29T13:54:37.759Z,60.61
2019-03-29T13:57:06.220Z,60.75
2019-03-29T13:59:34.669Z,60.39
2019-03-29T14:02:03.502Z,60.47
2019-03-29T14:04:31.967Z,60.29
2019-03-29T14:07:08.205Z,60.28
2019-03-29T14:09:36.716Z,60.14
2019-03-29T14:12:05.220Z,59.92
2019-03-29T14:14:38.605Z,60.08
2019-03-29T14:17:03.889Z,60.06
2019-03-29T14:19:32.349Z,59.94
2019-03-29T14:22:00.815Z,59.32
2019-03-29T14:24:29.318Z,59.04
2019-03-29T14:26:57.941Z,59.09
2019-03-29T14:29:26.386Z,58.98
2019-03-29T14:31:54.928Z,59.14
2019-03-29T14:34:23.397Z,58.97
2019-03-29T14:36:51.855Z,58.83
2019-03-29T14:39:20.347Z,58.90
2019-03-29T14:41:48.795Z,59.25
2019-03-29T14:44:17.254Z,59.09
2019-03-29T14:46:45.748Z,59.12
2019-03-29T14:49:14.208Z,58.73
2019-03-29T14:51:42.667Z,59.05
2019-03-29T14:54:11.149Z,58.80
2019-03-29T14:56:41.770Z,58.85
2019-03-29T14:59:09.781Z,58.85
2019-03-29T15:01:38.298Z,58.79
2019-03-29T15:04:06.864Z,58.61
2019-03-29T15:06:35.318Z,58.73
2019-03-29T15:09:05.851Z,58.00
2019-03-29T15:11:38.998Z,58.06
2019-03-29T15:14:07.460Z,58.25
2019-03-29T15:16:35.944Z,58.03
2019-03-29T15:19:04.396Z,57.79
2019-03-29T15:21:32.848Z,57.78
2019-03-29T15:24:01.477Z,57.64
2019-03-29T15:26:30.071Z,57.61
2019-03-29T15:28:58.542Z,57.21
2019-03-29T15:31:27.031Z,57.62
2019-03-29T15:33:55.897Z,57.75
2019-03-29T15:36:24.456Z,57.79
2019-03-29T15:38:53.029Z,57.72
2019-03-29T15:41:21.489Z,57.90
2019-03-29T15:43:50.024Z,58.10
2019-03-29T15:46:18.519Z,58.17
2019-03-29T15:48:46.974Z,58.10
2019-03-29T15:51:15.446Z,57.86
2019-03-29T15:53:43.943Z,57.90
2019-03-29T15:56:12.393Z,57.83
2019-03-29T15:58:40.867Z,57.91
2019-03-29T16:01:09.427Z,58.00
2019-03-29T16:03:37.886Z,58.01
2019-03-29T16:06:06.714Z,58.25
2019-03-29T16:08:35.197Z,58.32
2019-03-29T16:11:03.669Z,58.58
2019-03-29T16:13:32.131Z,58.72
2019-03-29T16:16:00.634Z,58.53
2019-03-29T16:18:30.732Z,58.30
2019-03-29T16:20:59.201Z,58.44
2019-03-29T16:23:27.838Z,58.41
2019-03-29T16:25:56.297Z,58.43
2019-03-29T16:28:24.755Z,58.34
2019-03-29T16:30:53.280Z,58.31
2019-03-29T16:33:21.755Z,58.43
2019-03-29T16:35:50.225Z,58.79
2019-03-29T16:38:18.715Z,59.14
2019-03-29T16:40:47.186Z,59.47
2019-03-29T16:43:15.661Z,59.80
2019-03-29T16:45:48.060Z,60.11
2019-03-29T16:48:14.343Z,60.27
2019-03-29T16:50:42.810Z,60.56
2019-03-29T16:53:11.313Z,60.79
2019-03-29T16:55:39.781Z,61.04
2019-03-29T16:58:08.241Z,61.25
2019-03-29T17:00:36.757Z,61.54
2019-03-29T17:03:05.415Z,61.80
2019-03-29T17:05:33.951Z,62.03
2019-03-29T17:08:05.278Z,62.15
2019-03-29T17:10:33.064Z,62.07
2019-03-29T17:13:01.827Z,61.97
2019-03-29T17:15:30.335Z,61.85
2019-03-29T17:17:58.818Z,61.93
2019-03-29T17:20:27.276Z,62.09
2019-03-29T17:22:55.779Z,62.29
2019-03-29T17:25:24.236Z,62.52
2019-03-29T17:27:52.731Z,62.89
2019-03-29T17:30:24.476Z,63.21
2019-03-29T17:32:52.946Z,63.61
2019-03-29T17:35:21.408Z,63.99
2019-03-29T17:37:49.906Z,64.40
2019-03-29T17:40:18.444Z,64.80
2019-03-29T17:42:47.157Z,65.17
2019-03-29T17:45:15.694Z,65.54
2019-03-29T17:47:44.213Z,65.90
2019-03-29T17:50:12.746Z,66.26
2019-03-29T17:52:41.255Z,66.55
2019-03-29T17:55:09.800Z,66.89
2019-03-29T17:57:38.258Z,67.15
2019-03-29T18:00:08.521Z,67.49
2019-03-29T18:02:37.150Z,67.78
2019-03-29T18:05:06.983Z,68.05
2019-03-29T18:07:35.485Z,68.31
2019-03-29T18:10:06.654Z,68.59
2019-03-29T18:12:35.143Z,68.86
2019-03-29T18:15:08.512Z,69.14
2019-03-29T18:17:36.979Z,69.40
2019-03-29T18:20:07.364Z,69.64
2019-03-29T18:22:35.854Z,69.80
2019-03-29T18:25:06.116Z,70.00
2019-03-29T18:27:34.571Z,70.32
2019-03-29T18:30:04.753Z,70.44
2019-03-29T18:32:33.596Z,70.60
2019-03-29T18:35:02.076Z,70.79
2019-03-29T18:37:31.370Z,71.02
2019-03-29T18:39:59.840Z,71.17
2019-03-29T18:42:28.311Z,71.28
2019-03-29T18:44:56.817Z,71.48
2019-03-29T18:47:25.291Z,71.73
2019-03-29T18:49:53.776Z,71.94
2019-03-29T18:52:22.282Z,72.03
2019-03-29T18:54:50.788Z,72.22
2019-03-29T18:57:19.402Z,72.39
2019-03-29T18:59:48.144Z,72.54
2019-03-29T19:02:16.552Z,72.67
2019-03-29T19:04:45.016Z,72.76
2019-03-29T19:07:13.570Z,72.89
2019-03-29T19:09:42.046Z,73.08
2019-03-29T19:12:10.639Z,73.23
2019-03-29T19:14:41.598Z,73.56
2019-03-29T19:17:09.345Z,73.75
2019-03-29T19:19:37.967Z,73.88
2019-03-29T19:22:06.468Z,74.09
2019-03-29T19:24:34.938Z,74.39
2019-03-29T19:27:03.424Z,74.60
2019-03-29T19:29:31.929Z,74.80
2019-03-29T19:32:00.619Z,75.02
2019-03-29T19:34:29.086Z,75.22
2019-03-29T19:36:57.597Z,75.34
2019-03-29T19:39:26.058Z,75.47
2019-03-29T19:41:54.530Z,75.63
2019-03-29T19:44:23.038Z,75.84
2019-03-29T19:46:51.528Z,75.93
2019-03-29T19:49:19.995Z,76.06
2019-03-29T19:51:48.651Z,76.16
2019-03-29T19:54:17.189Z,76.36
2019-03-29T19:56:45.658Z,76.56
2019-03-29T19:59:14.239Z,76.70
2019-03-29T20:01:42.721Z,76.80
2019-03-29T20:04:11.205Z,76.82
2019-03-29T20:06:39.721Z,77.01
2019-03-29T20:09:09.937Z,77.09
2019-03-29T20:11:38.627Z,77.13
2019-03-29T20:14:07.358Z,77.22
2019-03-29T20:16:35.814Z,77.45
2019-03-29T20:19:04.285Z,77.45
2019-03-29T20:21:32.794Z,77.57
2019-03-29T20:24:01.257Z,77.60
2019-03-29T20:26:29.715Z,77.83
2019-03-29T20:28:58.222Z,77.95
2019-03-29T20:31:26.676Z,78.19
2019-03-29T20:33:55.132Z,78.20
2019-03-29T20:36:23.657Z,78.23
2019-03-29T20:38:52.097Z,78.50
2019-03-29T20:41:20.577Z,78.57
2019-03-29T20:43:49.103Z,78.75
2019-03-29T20:46:17.560Z,78.85
2019-03-29T20:48:46.060Z,78.89
2019-03-29T20:51:14.565Z,78.99
2019-03-29T20:53:43.739Z,79.17
2019-03-29T20:56:12.394Z,79.37
2019-03-29T20:58:40.993Z,79.52
2019-03-29T21:01:09.469Z,79.64
2019-03-29T21:03:37.937Z,79.80
2019-03-29T21:06:06.437Z,79.89
2019-03-29T21:08:34.905Z,80.06
2019-03-29T21:11:03.378Z,80.12
2019-03-29T21:13:31.917Z,80.08
2019-03-29T21:16:01.427Z,80.23
2019-03-29T21:18:29.887Z,80.20
2019-03-29T21:20:58.397Z,80.30
2019-03-29T21:23:26.827Z,80.30
2019-03-29T21:25:55.327Z,80.33
2019-03-29T21:28:23.791Z,80.34
2019-03-29T21:30:52.326Z,80.57
2019-03-29T21:33:20.846Z,80.78
2019-03-29T21:35:49.305Z,80.77
2019-03-29T21:38:17.760Z,80.79
2019-03-29T21:40:46.252Z,80.89
2019-03-29T21:43:14.782Z,81.06
2019-03-29T21:45:43.232Z,81.16
2019-03-29T21:48:27.973Z,81.25
2019-03-29T21:50:41.934Z,81.24
2019-03-29T21:53:10.395Z,81.37
2019-03-29T21:55:38.887Z,81.37
2019-03-29T21:58:07.357Z,81.60
2019-03-29T22:00:35.831Z,81.57
2019-03-29T22:03:04.312Z,81.71
2019-03-29T22:05:32.757Z,81.83
2019-03-29T22:08:01.233Z,81.91
2019-03-29T22:10:29.731Z,82.15
2019-03-29T22:12:58.262Z,82.28
2019-03-29T22:15:26.721Z,82.29
2019-03-29T22:17:55.549Z,82.46
2019-03-29T22:20:24.018Z,82.38
2019-03-29T22:22:52.555Z,82.36
2019-03-29T22:25:21.062Z,82.42
2019-03-29T22:27:49.524Z,82.44
2019-03-29T22:30:18.051Z,82.49
2019-03-29T22:32:46.543Z,82.53
2019-03-29T22:35:15.001Z,82.53
2019-03-29T22:37:43.461Z,82.56
2019-03-29T22:40:12.028Z,82.40
2019-03-29T22:42:40.488Z,82.54
2019-03-29T22:45:09.188Z,82.67
2019-03-29T22:47:37.707Z,82.82
2019-03-29T22:50:06.732Z,82.86
2019-03-29T22:52:35.207Z,83.18
2019-03-29T22:55:07.276Z,83.26
2019-03-29T22:57:35.740Z,83.43
2019-03-29T23:00:10.434Z,83.82
2019-03-29T23:02:38.941Z,83.93
2019-03-29T23:05:08.071Z,84.01
2019-03-29T23:07:36.544Z,83.96
2019-03-29T23:10:06.353Z,83.87
2019-03-29T23:12:34.779Z,83.82
2019-03-29T23:15:03.323Z,83.85
2019-03-29T23:17:31.799Z,83.76
2019-03-29T23:20:00.385Z,83.76
2019-03-29T23:22:28.844Z,83.78
2019-03-29T23:24:57.352Z,83.81
2019-03-29T23:27:25.821Z,83.79
2019-03-29T23:29:54.291Z,83.96
2019-03-29T23:32:22.791Z,84.12
2019-03-29T23:34:51.250Z,84.13
2019-03-29T23:37:19.712Z,84.14
2019-03-29T23:39:48.214Z,84.14
2019-03-29T23:42:16.686Z,84.17
2019-03-29T23:44:45.147Z,84.25
2019-03-29T23:47:13.660Z,84.38
2019-03-29T23:49:42.120Z,84.39
2019-03-29T23:52:10.594Z,84.42
2019-03-29T23:54:39.087Z,84.53
2019-03-29T23:57:07.559Z,84.52
2019-03-29T23:59:36.034Z,84.46
